History for KNYNEWYO343

Midtown West, New York, NY — Current Conditions
Daily Summary for April 26, 2018
  Current: High: Low: Average:
Temperature: 56.1°F 56.7°F 55.8°F 56.2°F
Dew Point: 55.9°F 56.5°F 55.6°F 55.9°F
Humidity: 99% 99% 99% 99%
Wind Speed: 0.0mph 0.0mph - 0.0mph
Wind Gust: 0.0mph 0.0mph - -
Wind: East - - South
Pressure: 29.57in 29.61in 29.56in -
Precipitation: 0.34in      
Solar Radiation: 0 watts/m^2      
UV Index: 0.0      
Statistics for the rest of the month
    High: Low: Average:
Temperature:   80.8°F 32.7°F 49.1°F
Dew Point:   60.3°F 5.2°F 31.0°F
Humidity:   99.0% 17.0% 54.7%
Wind Speed:   10.3mph from the NNE - 0.1mph
Wind Gust:   15.0mph from the NNW - -
Wind:   - - SSW
Pressure:   30.47in 29.38in -
Precipitation:   8.25in    
KNYNEWYO343 Weather Graph
Tabular Data for April 26, 2018
Time Temp. Dew Point Pressure Wind Gust Humidity Rainfall Solar Radiation
00:00 56.3°F 56.1°F 29.61in 0.0mph 99% 0.00in 0.00 watts/m^2
00:02 56.3°F 56.1°F 29.61in 0.0mph 99% 0.00in 0.00 watts/m^2
00:07 56.5°F 56.3°F 29.61in 0.0mph 99% 0.00in 0.00 watts/m^2
00:12 56.7°F 56.5°F 29.60in 0.0mph 99% 0.00in 0.00 watts/m^2
00:17 56.7°F 56.5°F 29.61in 0.0mph 99% 0.00in 0.00 watts/m^2
00:22 56.7°F 56.5°F 29.60in 0.0mph 99% 0.00in 0.00 watts/m^2
00:27 56.5°F 56.3°F 29.61in 0.0mph 99% 0.07in 0.00 watts/m^2
00:32 56.3°F 56.1°F 29.59in 0.0mph 99% 0.35in 0.00 watts/m^2
00:37 56.1°F 55.9°F 29.59in 0.0mph 99% 0.71in 0.00 watts/m^2
00:42 55.9°F 55.8°F 29.59in 0.0mph 99% 0.64in 0.00 watts/m^2
00:48 55.8°F 55.6°F 29.60in 0.0mph 99% 0.43in 0.00 watts/m^2
00:53 55.9°F 55.8°F 29.59in 0.0mph 99% 0.35in 0.00 watts/m^2
00:58 55.9°F 55.8°F 29.59in 0.0mph 99% 0.35in 0.00 watts/m^2
01:03 55.9°F 55.8°F 29.59in 0.0mph 99% 0.21in 0.00 watts/m^2
01:08 55.9°F 55.8°F 29.59in 0.0mph 99% 0.21in 0.00 watts/m^2
01:13 55.9°F 55.8°F 29.59in 0.0mph 99% 0.21in 0.00 watts/m^2
01:18 55.9°F 55.8°F 29.59in 0.0mph 99% 0.21in 0.00 watts/m^2
01:23 55.8°F 55.6°F 29.59in 0.0mph 99% 0.07in 0.00 watts/m^2
01:28 55.8°F 55.6°F 29.59in 0.0mph 99% 0.07in 0.00 watts/m^2
01:33 55.8°F 55.6°F 29.58in 0.0mph 99% 0.07in 0.00 watts/m^2
01:38 55.8°F 55.6°F 29.57in 0.0mph 99% 0.00in 0.00 watts/m^2
01:43 55.8°F 55.6°F 29.58in 0.0mph 99% 0.00in 0.00 watts/m^2
01:48 55.8°F 55.6°F 29.58in 0.0mph 99% 0.00in 0.00 watts/m^2
01:53 55.8°F 55.6°F 29.57in 0.0mph 99% 0.00in 0.00 watts/m^2
01:58 55.8°F 55.6°F 29.57in 0.0mph 99% 0.00in 0.00 watts/m^2
02:04 55.8°F 55.6°F 29.57in 0.0mph 99% 0.00in 0.00 watts/m^2
02:09 55.8°F 55.6°F 29.57in 0.0mph 99% 0.00in 0.00 watts/m^2
02:14 55.9°F 55.8°F 29.57in 0.0mph 99% 0.00in 0.00 watts/m^2
02:19 55.9°F 55.8°F 29.56in 0.0mph 99% 0.00in 0.00 watts/m^2
02:24 55.9°F 55.8°F 29.57in 0.0mph 99% 0.00in 0.00 watts/m^2
02:29 56.1°F 55.9°F 29.57in 0.0mph 99% 0.00in 0.00 watts/m^2
02:34 56.1°F 55.9°F 29.57in 0.0mph 99% 0.00in 0.00 watts/m^2
02:39 56.3°F 56.1°F 29.57in 0.0mph 99% 0.00in 0.00 watts/m^2
02:44 56.3°F 56.1°F 29.57in 0.0mph 99% 0.00in 0.00 watts/m^2
02:49 56.3°F 56.1°F 29.56in 0.0mph 99% 0.00in 0.00 watts/m^2
02:54 56.3°F 56.1°F 29.56in 0.0mph 99% 0.00in 0.00 watts/m^2
02:59 56.3°F 56.1°F 29.57in 0.0mph 99% 0.00in 0.00 watts/m^2
03:04 56.1°F 55.9°F 29.57in 0.0mph 99% 0.00in 0.00 watts/m^2
03:09 56.1°F 55.9°F 29.57in 0.0mph 99% 0.00in 0.00 watts/m^2
03:14 55.9°F 55.8°F 29.57in 0.0mph 99% 0.00in 0.00 watts/m^2
03:20 56.1°F 55.9°F 29.57in 0.0mph 99% 0.00in 0.00 watts/m^2
Comma Delimited File
Powered by Weather Underground, Inc.